createdAt,value
2022-11-29T00:00:22.692Z,89.05
2022-11-29T00:00:54.192Z,90.20
2022-11-29T00:01:27.209Z,112.72
2022-11-29T00:01:58.740Z,98.38
2022-11-29T00:02:30.294Z,83.78
2022-11-29T00:03:02.139Z,85.15
2022-11-29T00:03:34.201Z,88.22
2022-11-29T00:04:05.761Z,94.70
2022-11-29T00:04:37.432Z,89.00
2022-11-29T00:05:09.169Z,97.63
2022-11-29T00:05:40.651Z,81.35
2022-11-29T00:06:17.685Z,108.80
2022-11-29T00:06:49.130Z,98.03
2022-11-29T00:07:20.704Z,90.95
2022-11-29T00:07:52.294Z,97.53
2022-11-29T00:08:24.084Z,90.97
2022-11-29T00:08:57.386Z,92.15
2022-11-29T00:09:28.816Z,98.53
2022-11-29T00:10:00.392Z,89.72
2022-11-29T00:10:31.837Z,88.43
2022-11-29T00:11:12.240Z,100.03
2022-11-29T00:12:02.353Z,83.90
2022-11-29T00:12:33.812Z,82.63
2022-11-29T00:13:05.512Z,83.15
2022-11-29T00:13:37.117Z,82.22
2022-11-29T00:14:11.866Z,93.32
2022-11-29T00:14:43.602Z,84.85
2022-11-29T00:15:15.966Z,84.80
2022-11-29T00:15:47.432Z,91.18
2022-11-29T00:16:18.923Z,106.15
2022-11-29T00:16:52.983Z,92.68
2022-11-29T00:17:24.501Z,91.45
2022-11-29T00:17:55.970Z,91.45
2022-11-29T00:18:27.437Z,108.50
2022-11-29T00:18:58.897Z,98.70
2022-11-29T00:19:32.142Z,96.65
2022-11-29T00:20:04.032Z,110.80
2022-11-29T00:20:35.881Z,127.82
2022-11-29T00:21:08.412Z,107.03
2022-11-29T00:21:39.878Z,101.28
2022-11-29T00:22:11.328Z,94.72
2022-11-29T00:22:42.823Z,97.13
2022-11-29T00:23:14.479Z,118.45
2022-11-29T00:23:46.055Z,132.63
2022-11-29T00:24:17.621Z,101.97
2022-11-29T00:24:49.068Z,146.00
2022-11-29T00:25:20.629Z,153.63
2022-11-29T00:25:52.539Z,114.00
2022-11-29T00:26:24.116Z,155.80
2022-11-29T00:26:55.572Z,143.25
2022-11-29T00:27:27.007Z,131.73
2022-11-29T00:27:58.595Z,88.70
2022-11-29T00:28:30.094Z,111.18
2022-11-29T00:29:01.540Z,93.22
2022-11-29T00:29:33.026Z,108.93
2022-11-29T00:30:05.349Z,125.22
2022-11-29T00:30:36.859Z,97.85
2022-11-29T00:31:17.927Z,121.95
2022-11-29T00:31:49.437Z,143.68
2022-11-29T00:32:20.880Z,178.93
2022-11-29T00:32:52.526Z,99.78
2022-11-29T00:33:24.001Z,86.10
2022-11-29T00:33:56.855Z,99.13
2022-11-29T00:34:28.551Z,95.22
2022-11-29T00:35:02.022Z,96.25
2022-11-29T00:35:35.637Z,115.00
2022-11-29T00:36:07.529Z,116.93
2022-11-29T00:36:39.950Z,112.13
2022-11-29T00:37:11.552Z,135.57
2022-11-29T00:37:42.988Z,170.57
2022-11-29T00:38:14.444Z,91.20
2022-11-29T00:38:46.281Z,112.57
2022-11-29T00:39:17.838Z,99.55
2022-11-29T00:39:49.274Z,146.05
2022-11-29T00:40:20.704Z,170.15
2022-11-29T00:40:52.633Z,122.53
2022-11-29T00:41:24.360Z,107.43
2022-11-29T00:41:55.942Z,101.00
2022-11-29T00:42:27.420Z,102.15
2022-11-29T00:42:58.869Z,90.97
2022-11-29T00:43:30.320Z,120.82
2022-11-29T00:44:01.803Z,101.68
2022-11-29T00:44:33.410Z,111.80
2022-11-29T00:45:05.382Z,82.60
2022-11-29T00:45:37.095Z,93.80
2022-11-29T00:46:09.398Z,82.15
2022-11-29T00:46:40.934Z,86.78
2022-11-29T00:47:12.471Z,103.80
2022-11-29T00:47:43.972Z,106.88
2022-11-29T00:48:15.433Z,94.43
2022-11-29T00:48:47.092Z,97.68
2022-11-29T00:49:18.557Z,99.38
2022-11-29T00:49:50.061Z,90.85
2022-11-29T00:50:21.537Z,80.07
2022-11-29T00:50:53.273Z,90.53
2022-11-29T00:51:24.756Z,86.75
2022-11-29T00:51:56.214Z,85.57
2022-11-29T00:52:27.834Z,85.95
2022-11-29T00:52:59.283Z,87.53
2022-11-29T00:53:30.822Z,93.07
2022-11-29T00:54:02.418Z,85.75
2022-11-29T00:54:33.919Z,81.70
2022-11-29T00:55:05.929Z,91.40
2022-11-29T00:55:37.433Z,77.70
2022-11-29T00:56:09.308Z,82.15
2022-11-29T00:56:40.852Z,83.95
2022-11-29T00:57:12.297Z,90.90
2022-11-29T00:57:43.809Z,86.38
2022-11-29T00:58:15.305Z,78.40
2022-11-29T00:58:48.516Z,77.15
2022-11-29T00:59:20.069Z,86.25
2022-11-29T00:59:51.529Z,84.10
2022-11-29T01:00:23.175Z,83.65
2022-11-29T01:00:54.871Z,92.57
2022-11-29T01:01:26.627Z,74.18
2022-11-29T01:01:58.160Z,70.63
2022-11-29T01:02:29.843Z,78.03
2022-11-29T01:03:01.993Z,82.05
2022-11-29T01:03:33.604Z,87.22
2022-11-29T01:04:05.295Z,89.60
2022-11-29T01:04:36.754Z,84.75
2022-11-29T01:05:08.470Z,91.15
2022-11-29T01:05:40.335Z,73.55
2022-11-29T01:06:14.125Z,71.47
2022-11-29T01:06:45.778Z,85.50
2022-11-29T01:07:17.407Z,80.68
2022-11-29T01:07:49.062Z,94.28
2022-11-29T01:08:20.656Z,80.97
2022-11-29T01:08:52.145Z,76.10
2022-11-29T01:09:23.769Z,77.63
2022-11-29T01:09:55.192Z,75.72
2022-11-29T01:10:27.080Z,77.60
2022-11-29T01:11:11.330Z,79.97
2022-11-29T01:11:42.936Z,72.25
2022-11-29T01:12:14.463Z,69.63
2022-11-29T01:12:45.942Z,79.85
2022-11-29T01:13:17.619Z,70.82
2022-11-29T01:13:51.006Z,63.90
2022-11-29T01:14:22.722Z,74.43
2022-11-29T01:14:54.264Z,59.80
2022-11-29T01:15:25.874Z,58.25
2022-11-29T01:15:58.201Z,63.03
2022-11-29T01:16:31.068Z,59.10
2022-11-29T01:17:02.759Z,71.22
2022-11-29T01:17:39.121Z,66.40
2022-11-29T01:18:10.608Z,54.95
2022-11-29T01:18:42.904Z,74.85
2022-11-29T01:19:14.361Z,69.97
2022-11-29T01:19:50.652Z,66.50
2022-11-29T01:20:22.586Z,71.90
2022-11-29T01:20:58.325Z,81.10
2022-11-29T01:21:29.972Z,72.45
2022-11-29T01:22:01.435Z,66.80
2022-11-29T01:22:34.439Z,79.53
2022-11-29T01:23:05.944Z,75.95
2022-11-29T01:23:38.090Z,74.93
2022-11-29T01:24:09.625Z,68.00
2022-11-29T01:24:41.477Z,76.10
2022-11-29T01:25:13.609Z,70.38
2022-11-29T01:25:45.065Z,70.47
2022-11-29T01:26:19.215Z,68.30
2022-11-29T01:26:50.657Z,60.58
2022-11-29T01:27:22.233Z,65.82
2022-11-29T01:27:54.388Z,60.30
2022-11-29T01:28:26.492Z,82.22
2022-11-29T01:28:58.662Z,67.88
2022-11-29T01:29:30.144Z,78.05
2022-11-29T01:30:02.471Z,68.40
2022-11-29T01:30:34.179Z,60.97
2022-11-29T01:31:10.816Z,67.18
2022-11-29T01:31:42.332Z,64.72
2022-11-29T01:32:13.936Z,65.97
2022-11-29T01:32:45.399Z,77.82
2022-11-29T01:33:16.905Z,70.75
2022-11-29T01:33:48.526Z,67.85
2022-11-29T01:34:19.977Z,64.75
2022-11-29T01:34:51.446Z,72.30
2022-11-29T01:35:22.976Z,66.07
2022-11-29T01:35:54.960Z,72.93
2022-11-29T01:36:27.014Z,69.40
2022-11-29T01:36:58.494Z,87.68
2022-11-29T01:37:30.051Z,72.18
2022-11-29T01:38:01.549Z,72.65
2022-11-29T01:38:33.165Z,78.03
2022-11-29T01:39:05.649Z,77.70
2022-11-29T01:39:37.349Z,74.15
2022-11-29T01:40:09.195Z,81.78
2022-11-29T01:40:40.693Z,67.55
2022-11-29T01:41:15.789Z,77.65
2022-11-29T01:41:47.296Z,64.47
2022-11-29T01:42:18.928Z,73.30
2022-11-29T01:42:50.405Z,75.28
2022-11-29T01:43:22.465Z,66.40
2022-11-29T01:43:55.160Z,72.28
2022-11-29T01:44:26.759Z,75.05
2022-11-29T01:45:23.004Z,66.47
2022-11-29T01:45:55.085Z,63.55
2022-11-29T01:46:29.245Z,63.67
2022-11-29T01:47:00.860Z,65.80
2022-11-29T01:47:32.401Z,72.68
2022-11-29T01:48:04.346Z,77.55
2022-11-29T01:48:35.809Z,74.07
2022-11-29T01:49:16.254Z,72.30
2022-11-29T01:49:48.694Z,63.58
2022-11-29T01:50:20.518Z,60.85
2022-11-29T01:50:54.524Z,66.28
2022-11-29T01:51:27.165Z,62.53
2022-11-29T01:52:00.363Z,63.28
2022-11-29T01:52:32.918Z,65.72
2022-11-29T01:53:04.869Z,60.83
2022-11-29T01:53:36.324Z,65.90
2022-11-29T01:54:09.167Z,73.07
2022-11-29T01:54:46.873Z,61.35
2022-11-29T01:55:19.016Z,68.55
2022-11-29T01:55:54.126Z,63.40
2022-11-29T01:56:25.974Z,56.50
2022-11-29T01:56:58.821Z,64.90
2022-11-29T01:57:31.078Z,62.22
2022-11-29T01:58:04.084Z,70.78
2022-11-29T01:58:35.913Z,64.70
2022-11-29T01:59:10.167Z,63.25
2022-11-29T01:59:46.278Z,69.10
2022-11-29T02:00:19.873Z,60.28
2022-11-29T02:00:51.336Z,57.25
2022-11-29T02:01:23.301Z,67.03
2022-11-29T02:02:06.085Z,63.88
2022-11-29T02:02:52.458Z,73.90
2022-11-29T02:03:24.021Z,66.47
2022-11-29T02:03:55.713Z,70.03
2022-11-29T02:04:27.233Z,72.57
2022-11-29T02:04:59.809Z,79.60
2022-11-29T02:05:32.718Z,67.50
2022-11-29T02:06:05.178Z,80.70
2022-11-29T02:06:37.203Z,74.15
2022-11-29T02:07:09.159Z,70.35
2022-11-29T02:07:43.081Z,75.28
2022-11-29T02:08:16.926Z,69.90
2022-11-29T02:08:48.389Z,69.28
2022-11-29T02:09:21.797Z,78.20
2022-11-29T02:09:53.246Z,74.68
2022-11-29T02:10:49.647Z,72.95
2022-11-29T02:11:46.341Z,67.90
2022-11-29T02:12:26.755Z,60.15
2022-11-29T02:13:04.965Z,59.70
2022-11-29T02:14:10.504Z,63.70
2022-11-29T02:15:06.350Z,59.90
2022-11-29T02:15:46.701Z,52.35
2022-11-29T02:16:33.217Z,68.05
2022-11-29T02:17:13.895Z,62.85
2022-11-29T02:18:14.797Z,75.75
2022-11-29T02:18:55.828Z,60.05
2022-11-29T02:20:42.718Z,57.83
2022-11-29T02:21:41.970Z,64.05
2022-11-29T02:22:19.480Z,53.53
2022-11-29T02:22:57.618Z,66.25
2022-11-29T02:23:39.445Z,79.43
2022-11-29T02:24:29.476Z,65.65
2022-11-29T02:25:24.623Z,54.58
2022-11-29T02:26:23.925Z,77.75
2022-11-29T02:27:04.509Z,64.72
2022-11-29T02:27:51.150Z,70.38
2022-11-29T02:28:52.043Z,68.55
2022-11-29T02:29:53.853Z,61.90
2022-11-29T02:31:58.927Z,57.95
2022-11-29T02:33:02.269Z,52.97
2022-11-29T02:33:47.109Z,63.67
2022-11-29T02:34:33.626Z,60.92
2022-11-29T02:35:05.113Z,57.55
2022-11-29T02:35:48.822Z,66.07
2022-11-29T02:36:32.562Z,65.75
2022-11-29T02:37:22.641Z,68.43
2022-11-29T02:38:23.290Z,59.60
2022-11-29T02:39:09.949Z,60.55
2022-11-29T02:40:04.880Z,49.90
2022-11-29T02:40:51.370Z,69.25
2022-11-29T02:41:59.744Z,68.93
2022-11-29T02:42:56.515Z,56.45
2022-11-29T02:43:57.981Z,57.08
2022-11-29T02:44:55.998Z,56.53
2022-11-29T02:45:36.196Z,68.63
2022-11-29T02:46:07.642Z,54.40
2022-11-29T02:46:49.176Z,51.83
2022-11-29T02:47:36.965Z,57.13
2022-11-29T02:48:27.591Z,56.47
2022-11-29T02:49:31.737Z,59.60
2022-11-29T02:50:21.453Z,48.03
2022-11-29T02:51:13.709Z,62.90
2022-11-29T02:51:55.123Z,48.83
2022-11-29T02:52:32.707Z,55.75
2022-11-29T02:53:11.657Z,55.42
2022-11-29T02:54:13.881Z,53.35
2022-11-29T02:54:50.386Z,57.00
2022-11-29T02:55:35.018Z,53.05
2022-11-29T02:56:34.428Z,66.50
2022-11-29T02:57:23.185Z,43.70
2022-11-29T02:58:19.471Z,51.78
2022-11-29T02:59:11.712Z,56.95
2022-11-29T02:59:54.858Z,47.28
2022-11-29T03:00:26.630Z,52.63
2022-11-29T03:01:05.404Z,48.95
2022-11-29T03:01:41.897Z,54.92
2022-11-29T03:02:39.966Z,50.10
2022-11-29T03:03:18.404Z,52.38
2022-11-29T03:03:56.456Z,61.05
2022-11-29T03:05:05.390Z,53.92
2022-11-29T03:06:02.084Z,49.85
2022-11-29T03:06:52.118Z,47.10
2022-11-29T03:07:52.965Z,43.47
2022-11-29T03:08:32.254Z,53.05
2022-11-29T03:09:22.031Z,52.00
2022-11-29T03:10:08.146Z,59.38
2022-11-29T03:11:17.239Z,46.00
2022-11-29T03:11:55.968Z,48.90
2022-11-29T03:12:38.438Z,48.40
2022-11-29T03:13:20.570Z,71.95
2022-11-29T03:14:14.685Z,58.05
2022-11-29T03:15:12.453Z,55.92
2022-11-29T03:15:59.167Z,60.85
2022-11-29T03:17:12.993Z,72.70
2022-11-29T03:18:10.612Z,64.18
2022-11-29T03:18:56.276Z,81.65
2022-11-29T03:19:55.190Z,54.67
2022-11-29T03:20:36.177Z,65.75
2022-11-29T03:22:03.575Z,44.17
2022-11-29T03:22:47.933Z,62.95
2022-11-29T03:23:32.229Z,49.97
2022-11-29T03:24:08.932Z,59.60
2022-11-29T03:24:54.951Z,60.42
2022-11-29T03:25:38.601Z,42.67
2022-11-29T03:26:24.890Z,47.50
2022-11-29T03:27:02.114Z,56.72
2022-11-29T03:28:01.468Z,48.75
2022-11-29T03:28:37.433Z,40.20
2022-11-29T03:29:29.755Z,48.65
2022-11-29T03:30:04.513Z,52.92
2022-11-29T03:30:38.376Z,54.38
2022-11-29T03:31:18.557Z,52.10
2022-11-29T03:32:07.497Z,58.25
2022-11-29T03:32:47.770Z,51.65
2022-11-29T03:33:35.969Z,53.83
2022-11-29T03:34:45.851Z,56.20
2022-11-29T03:35:35.976Z,49.13
2022-11-29T03:36:07.671Z,61.55
2022-11-29T03:36:45.557Z,48.47
2022-11-29T03:37:43.130Z,53.85
2022-11-29T03:38:43.112Z,46.72
2022-11-29T03:39:19.542Z,52.42
2022-11-29T03:39:53.480Z,63.10
2022-11-29T03:40:46.777Z,59.67
2022-11-29T03:41:25.768Z,50.10
2022-11-29T03:42:03.855Z,63.85
2022-11-29T03:42:43.249Z,60.58
2022-11-29T03:43:30.774Z,58.97
2022-11-29T03:44:11.518Z,55.78
2022-11-29T03:44:56.408Z,60.10
2022-11-29T03:45:33.837Z,58.85
2022-11-29T03:46:14.724Z,55.20
2022-11-29T03:47:09.093Z,72.80
2022-11-29T03:47:49.219Z,46.13
2022-11-29T03:49:01.731Z,55.55
2022-11-29T03:49:38.015Z,53.70
2022-11-29T03:50:20.694Z,60.72
2022-11-29T03:50:55.350Z,46.55
2022-11-29T03:51:51.773Z,57.75
2022-11-29T03:52:29.389Z,55.45
2022-11-29T03:53:14.853Z,63.33
2022-11-29T03:53:52.157Z,67.15
2022-11-29T03:54:32.650Z,58.20
2022-11-29T03:55:23.063Z,61.25
2022-11-29T03:56:00.504Z,69.30
2022-11-29T03:56:34.555Z,64.90
2022-11-29T03:57:06.972Z,61.65
2022-11-29T03:57:50.214Z,55.85
2022-11-29T03:58:32.589Z,47.58
2022-11-29T03:59:12.114Z,51.05
2022-11-29T03:59:59.961Z,55.28
2022-11-29T04:00:42.986Z,51.70
2022-11-29T04:01:50.113Z,75.70
2022-11-29T04:03:09.621Z,101.53
2022-11-29T04:04:00.471Z,53.00
2022-11-29T04:04:50.364Z,59.83
2022-11-29T04:05:21.860Z,51.40
2022-11-29T04:06:01.147Z,50.33
2022-11-29T04:07:00.060Z,69.05
2022-11-29T04:07:47.159Z,59.75
2022-11-29T04:08:43.085Z,56.47
2022-11-29T04:09:46.749Z,43.15
2022-11-29T04:10:27.192Z,107.57
2022-11-29T04:11:55.820Z,58.38
2022-11-29T04:13:02.463Z,114.03
2022-11-29T04:14:11.277Z,97.93
2022-11-29T04:15:04.238Z,48.75
2022-11-29T04:15:44.634Z,48.90
2022-11-29T04:16:32.901Z,58.25
2022-11-29T04:17:22.198Z,61.55
2022-11-29T04:18:20.458Z,64.35
2022-11-29T04:19:15.740Z,60.50
2022-11-29T04:20:24.789Z,64.85
2022-11-29T04:21:14.818Z,48.05
2022-11-29T04:22:15.480Z,63.22
2022-11-29T04:23:18.645Z,70.80
2022-11-29T04:24:25.652Z,72.18
2022-11-29T04:25:21.882Z,44.85
2022-11-29T04:26:24.061Z,60.08
2022-11-29T04:27:13.739Z,54.22
2022-11-29T04:27:49.522Z,61.83
2022-11-29T04:28:45.090Z,99.07
2022-11-29T04:29:26.858Z,58.45
2022-11-29T04:30:07.743Z,60.40
2022-11-29T04:31:06.909Z,56.38
2022-11-29T04:32:03.448Z,66.90
2022-11-29T04:33:17.150Z,44.95
2022-11-29T04:34:03.767Z,68.65
2022-11-29T04:34:58.855Z,63.92
2022-11-29T04:36:05.713Z,58.42
2022-11-29T04:36:54.099Z,53.90
2022-11-29T04:37:31.642Z,54.70
2022-11-29T04:38:05.748Z,47.63
2022-11-29T04:38:42.838Z,100.97
2022-11-29T04:39:36.481Z,110.22
2022-11-29T04:40:32.564Z,108.47
2022-11-29T04:41:20.356Z,46.28
2022-11-29T04:42:25.861Z,49.47
2022-11-29T04:43:34.549Z,81.75
2022-11-29T04:44:09.383Z,43.88
2022-11-29T04:44:58.914Z,108.53
2022-11-29T04:45:48.753Z,50.25
2022-11-29T04:46:46.679Z,62.88
2022-11-29T04:47:38.497Z,50.33
2022-11-29T04:48:28.050Z,43.50
2022-11-29T04:49:11.215Z,51.13
2022-11-29T04:50:18.334Z,53.05
2022-11-29T04:51:33.977Z,43.40
2022-11-29T04:52:24.821Z,52.00
2022-11-29T04:53:08.811Z,54.40
2022-11-29T04:53:49.172Z,49.78
2022-11-29T04:54:48.699Z,62.10
2022-11-29T04:55:43.128Z,49.05
2022-11-29T04:56:43.309Z,52.35
2022-11-29T04:57:42.130Z,46.08
2022-11-29T04:58:29.615Z,58.00
2022-11-29T04:59:19.464Z,74.30
2022-11-29T04:59:57.251Z,52.30
2022-11-29T05:00:31.585Z,61.53
2022-11-29T05:01:23.462Z,79.70
2022-11-29T05:02:13.341Z,66.60
2022-11-29T05:03:02.096Z,69.00
2022-11-29T05:03:41.853Z,65.25
2022-11-29T05:04:28.431Z,80.78
2022-11-29T05:05:13.997Z,51.63
2022-11-29T05:05:51.570Z,45.17
2022-11-29T05:06:29.803Z,57.08
2022-11-29T05:07:27.776Z,58.13
2022-11-29T05:08:20.877Z,62.20
2022-11-29T05:09:22.216Z,48.85
2022-11-29T05:09:56.617Z,53.22
2022-11-29T05:10:52.934Z,63.03
2022-11-29T05:11:43.050Z,49.63
2022-11-29T05:12:18.643Z,51.22
2022-11-29T05:13:03.233Z,56.00
2022-11-29T05:13:56.045Z,43.38
2022-11-29T05:14:49.820Z,56.50
2022-11-29T05:15:29.987Z,49.10
2022-11-29T05:16:21.793Z,52.50
2022-11-29T05:17:20.220Z,51.03
2022-11-29T05:18:10.302Z,53.13
2022-11-29T05:19:00.367Z,92.28
2022-11-29T05:20:05.895Z,35.35
2022-11-29T05:20:49.634Z,58.28
2022-11-29T05:21:36.465Z,52.63
2022-11-29T05:22:29.142Z,46.90
2022-11-29T05:23:12.276Z,59.85
2022-11-29T05:24:20.524Z,64.18
2022-11-29T05:25:14.087Z,50.03
2022-11-29T05:25:54.480Z,60.42
2022-11-29T05:26:27.448Z,43.50
2022-11-29T05:27:25.697Z,47.30
2022-11-29T05:28:10.252Z,67.43
2022-11-29T05:29:03.547Z,53.58
2022-11-29T05:29:43.398Z,69.13
2022-11-29T05:30:20.865Z,46.05
2022-11-29T05:31:23.078Z,45.60
2022-11-29T05:32:21.520Z,54.67
2022-11-29T05:33:14.047Z,47.20
2022-11-29T05:33:59.374Z,50.38
2022-11-29T05:34:43.680Z,48.47
2022-11-29T05:35:37.181Z,55.63
2022-11-29T05:36:29.578Z,124.28
2022-11-29T05:37:25.926Z,44.28
2022-11-29T05:37:57.527Z,57.55
2022-11-29T05:39:03.634Z,56.92
2022-11-29T05:39:42.134Z,128.10
2022-11-29T05:40:13.773Z,55.13
2022-11-29T05:41:19.342Z,52.75
2022-11-29T05:42:02.627Z,78.13
2022-11-29T05:42:45.875Z,77.47
2022-11-29T05:43:52.806Z,43.42
2022-11-29T05:44:43.456Z,48.53
2022-11-29T05:45:44.437Z,47.00
2022-11-29T05:46:30.208Z,53.55
2022-11-29T05:47:03.428Z,39.58
2022-11-29T05:47:51.850Z,77.45
2022-11-29T05:48:45.410Z,50.53
2022-11-29T05:49:18.886Z,41.80
2022-11-29T05:50:07.586Z,42.58
2022-11-29T05:50:55.129Z,42.63
2022-11-29T05:51:29.593Z,43.65
2022-11-29T05:52:22.571Z,44.15
2022-11-29T05:53:03.062Z,41.85
2022-11-29T05:53:43.197Z,54.63
2022-11-29T05:54:28.215Z,45.80
2022-11-29T05:55:16.849Z,58.28
2022-11-29T05:56:12.777Z,55.97
2022-11-29T05:57:01.147Z,60.50
2022-11-29T05:57:54.012Z,64.80
2022-11-29T05:58:43.793Z,64.78
2022-11-29T05:59:22.219Z,59.08
2022-11-29T05:59:53.997Z,59.53
2022-11-29T06:00:29.265Z,57.92
2022-11-29T06:01:16.691Z,73.00
2022-11-29T06:02:15.742Z,44.72
2022-11-29T06:03:10.392Z,72.53
2022-11-29T06:04:04.473Z,62.88
2022-11-29T06:04:57.687Z,95.57
2022-11-29T06:05:37.440Z,57.08
2022-11-29T06:06:16.750Z,149.85
2022-11-29T06:06:57.222Z,158.25
2022-11-29T06:07:31.531Z,143.55
2022-11-29T06:08:26.007Z,76.97
2022-11-29T06:09:05.903Z,82.78
2022-11-29T06:09:49.947Z,107.22
2022-11-29T06:10:25.024Z,54.25
2022-11-29T06:11:14.401Z,57.28
2022-11-29T06:11:49.282Z,106.55
2022-11-29T06:12:22.869Z,129.55
2022-11-29T06:13:10.893Z,117.53
2022-11-29T06:14:01.443Z,57.88
2022-11-29T06:14:41.821Z,101.43
2022-11-29T06:15:19.248Z,93.95
2022-11-29T06:16:17.803Z,67.60
2022-11-29T06:17:13.843Z,88.95
2022-11-29T06:18:27.401Z,148.70
2022-11-29T06:19:23.784Z,113.32
2022-11-29T06:20:13.058Z,64.25
2022-11-29T06:21:14.742Z,78.18
2022-11-29T06:21:57.971Z,72.68
2022-11-29T06:23:03.135Z,75.40
2022-11-29T06:23:49.522Z,168.57
2022-11-29T06:24:37.791Z,141.20
2022-11-29T06:25:37.642Z,101.20
2022-11-29T06:26:44.825Z,142.55
2022-11-29T06:27:24.923Z,94.95
2022-11-29T06:28:17.801Z,77.55
2022-11-29T06:29:07.813Z,52.90
2022-11-29T06:29:52.612Z,55.13
2022-11-29T06:30:27.756Z,64.45
2022-11-29T06:31:03.473Z,69.07
2022-11-29T06:31:44.032Z,92.00
2022-11-29T06:32:40.258Z,100.10
2022-11-29T06:33:29.607Z,64.75
2022-11-29T06:34:07.393Z,50.22
2022-11-29T06:34:48.598Z,62.45
2022-11-29T06:35:48.797Z,60.45
2022-11-29T06:36:31.942Z,41.42
2022-11-29T06:37:20.345Z,45.75
2022-11-29T06:37:53.888Z,48.13
2022-11-29T06:38:28.242Z,79.95
2022-11-29T06:38:59.865Z,45.05
2022-11-29T06:39:31.559Z,55.53
2022-11-29T06:40:04.408Z,49.47
2022-11-29T06:40:36.072Z,44.88
2022-11-29T06:41:14.725Z,40.88
2022-11-29T06:41:47.095Z,44.20
2022-11-29T06:42:18.644Z,55.25
2022-11-29T06:42:50.361Z,72.57
2022-11-29T06:43:22.052Z,56.40
2022-11-29T06:43:53.825Z,58.78
2022-11-29T06:44:25.618Z,59.03
2022-11-29T06:44:57.208Z,55.58
2022-11-29T06:45:28.956Z,53.75
2022-11-29T06:46:14.614Z,91.53
2022-11-29T06:46:53.528Z,51.40
2022-11-29T06:47:30.812Z,45.00
2022-11-29T06:48:04.576Z,51.90
2022-11-29T06:49:02.482Z,48.15
2022-11-29T06:49:40.029Z,47.67
2022-11-29T06:50:20.059Z,42.08
2022-11-29T06:51:06.026Z,56.42
2022-11-29T06:52:02.445Z,68.03
2022-11-29T06:53:25.237Z,67.50
2022-11-29T06:54:52.115Z,107.50
2022-11-29T06:55:57.684Z,90.93
2022-11-29T06:56:36.157Z,45.42
2022-11-29T06:57:24.826Z,47.83
2022-11-29T06:58:12.693Z,78.60
2022-11-29T06:58:52.024Z,53.63
2022-11-29T06:59:35.742Z,54.95
2022-11-29T07:00:20.690Z,41.63
2022-11-29T07:01:14.443Z,56.10
2022-11-29T07:02:04.323Z,48.50
2022-11-29T07:02:55.053Z,36.67
2022-11-29T07:03:32.981Z,72.97
2022-11-29T07:04:28.933Z,51.13
2022-11-29T07:05:15.685Z,53.95
2022-11-29T07:05:47.476Z,46.65
2022-11-29T07:06:30.111Z,61.75
2022-11-29T07:07:01.889Z,53.10
2022-11-29T07:07:35.132Z,44.85
2022-11-29T07:08:12.221Z,54.10
2022-11-29T07:08:43.893Z,57.10
2022-11-29T07:09:18.420Z,55.42
2022-11-29T07:09:51.706Z,48.92
2022-11-29T07:10:24.025Z,58.50
2022-11-29T07:10:56.113Z,60.22
2022-11-29T07:11:28.157Z,65.75
2022-11-29T07:12:00.168Z,50.72
2022-11-29T07:12:31.922Z,51.35
2022-11-29T07:13:03.724Z,73.45
2022-11-29T07:13:35.566Z,73.20
2022-11-29T07:14:07.434Z,42.22
2022-11-29T07:14:39.208Z,58.97
2022-11-29T07:15:18.581Z,69.47
2022-11-29T07:16:33.913Z,102.07
2022-11-29T07:17:24.073Z,53.60
2022-11-29T07:18:02.353Z,48.85
2022-11-29T07:18:48.657Z,54.30
2022-11-29T07:19:43.880Z,43.22
2022-11-29T07:20:47.549Z,47.03
2022-11-29T07:21:39.760Z,48.88
2022-11-29T07:22:33.602Z,84.82
2022-11-29T07:23:19.544Z,66.55
2022-11-29T07:24:02.505Z,63.38
2022-11-29T07:24:49.133Z,83.15
2022-11-29T07:25:26.308Z,81.25
2022-11-29T07:26:16.547Z,54.08
2022-11-29T07:26:59.697Z,108.40
2022-11-29T07:27:37.034Z,168.23
2022-11-29T07:28:35.230Z,76.63
2022-11-29T07:29:24.688Z,55.50
2022-11-29T07:30:05.208Z,71.85
2022-11-29T07:31:05.950Z,56.97
2022-11-29T07:31:52.426Z,61.95
2022-11-29T07:32:47.306Z,86.53
2022-11-29T07:34:03.418Z,107.57
2022-11-29T07:34:59.405Z,52.95
2022-11-29T07:35:51.467Z,55.00
2022-11-29T07:36:45.671Z,57.78
2022-11-29T07:37:22.743Z,69.95
2022-11-29T07:38:11.929Z,55.85
2022-11-29T07:38:52.416Z,65.65
2022-11-29T07:39:41.988Z,115.10
2022-11-29T07:40:16.155Z,62.70
2022-11-29T07:40:53.821Z,46.35
2022-11-29T07:41:40.482Z,54.42
2022-11-29T07:42:34.275Z,62.08
2022-11-29T07:43:27.200Z,55.67
2022-11-29T07:44:34.953Z,69.90
2022-11-29T07:45:21.711Z,120.13
2022-11-29T07:45:54.610Z,58.60
2022-11-29T07:46:28.456Z,68.15
2022-11-29T07:46:59.977Z,60.65
2022-11-29T07:47:35.672Z,67.28
2022-11-29T07:48:10.929Z,55.95
2022-11-29T07:48:42.609Z,57.97
2022-11-29T07:49:14.085Z,50.85
2022-11-29T07:49:45.569Z,53.22
2022-11-29T07:50:17.296Z,58.25
2022-11-29T07:50:48.764Z,73.28
2022-11-29T07:51:20.271Z,54.80
2022-11-29T07:51:51.933Z,72.20
2022-11-29T07:52:23.395Z,68.88
2022-11-29T07:52:56.035Z,75.97
2022-11-29T07:53:28.916Z,58.45
2022-11-29T07:54:00.377Z,74.32
2022-11-29T07:54:31.845Z,76.18
2022-11-29T07:55:05.025Z,70.78
2022-11-29T07:55:37.330Z,96.03
2022-11-29T07:56:12.568Z,86.47
2022-11-29T07:56:44.205Z,66.90
2022-11-29T07:57:15.696Z,91.50
2022-11-29T07:57:48.077Z,91.18
2022-11-29T07:58:19.632Z,81.07
2022-11-29T07:58:51.151Z,89.80
2022-11-29T07:59:22.787Z,74.65
2022-11-29T07:59:54.253Z,83.82
2022-11-29T08:00:25.783Z,80.28
2022-11-29T08:00:57.620Z,72.18
2022-11-29T08:01:29.352Z,77.88
2022-11-29T08:02:00.906Z,74.32
2022-11-29T08:02:32.629Z,62.17
2022-11-29T08:03:04.747Z,66.45
2022-11-29T08:03:36.348Z,67.72
2022-11-29T08:04:08.513Z,71.75
2022-11-29T08:04:44.458Z,55.08
2022-11-29T08:05:16.589Z,62.58
2022-11-29T08:05:48.242Z,70.18
2022-11-29T08:06:26.495Z,58.85
2022-11-29T08:06:59.628Z,59.40
2022-11-29T08:07:31.261Z,63.15
2022-11-29T08:08:03.316Z,63.22
2022-11-29T08:08:37.867Z,91.95
2022-11-29T08:09:13.793Z,59.05
2022-11-29T08:09:45.593Z,76.90
2022-11-29T08:10:17.493Z,55.80
2022-11-29T08:10:48.984Z,65.28
2022-11-29T08:11:20.588Z,60.10
2022-11-29T08:11:52.656Z,64.90
2022-11-29T08:12:24.188Z,58.92
2022-11-29T08:12:55.654Z,60.92
2022-11-29T08:13:27.119Z,66.10
2022-11-29T08:14:00.210Z,64.43
2022-11-29T08:14:33.300Z,60.58
2022-11-29T08:15:05.402Z,73.20
2022-11-29T08:15:36.976Z,73.78
2022-11-29T08:16:08.644Z,59.83
2022-11-29T08:16:40.146Z,57.40
2022-11-29T08:17:11.650Z,62.95
2022-11-29T08:17:43.248Z,55.50
2022-11-29T08:18:15.876Z,55.53
2022-11-29T08:18:47.326Z,56.67
2022-11-29T08:19:18.924Z,59.10
2022-11-29T08:19:50.450Z,69.15
2022-11-29T08:20:21.901Z,63.80
2022-11-29T08:20:53.775Z,59.95
2022-11-29T08:21:25.250Z,56.33
2022-11-29T08:21:56.751Z,64.30
2022-11-29T08:22:28.232Z,56.40
2022-11-29T08:22:59.889Z,59.30
2022-11-29T08:23:31.368Z,62.25
2022-11-29T08:24:02.873Z,61.70
2022-11-29T08:24:34.324Z,49.75
2022-11-29T08:25:07.240Z,61.03
2022-11-29T08:25:39.127Z,60.10
2022-11-29T08:26:10.628Z,56.65
2022-11-29T08:26:42.096Z,81.65
2022-11-29T08:27:13.858Z,87.15
2022-11-29T08:27:45.304Z,56.35
2022-11-29T08:28:17.098Z,65.50
2022-11-29T08:28:52.792Z,52.50
2022-11-29T08:29:24.236Z,58.35
2022-11-29T08:29:55.681Z,54.97
2022-11-29T08:30:27.193Z,53.58
2022-11-29T08:31:07.921Z,69.63
2022-11-29T08:31:40.104Z,61.33
2022-11-29T08:32:14.596Z,57.83
2022-11-29T08:32:51.237Z,54.88
2022-11-29T08:33:23.125Z,53.22
2022-11-29T08:33:54.650Z,56.15
2022-11-29T08:34:26.337Z,59.00
2022-11-29T08:34:57.802Z,53.83
2022-11-29T08:35:29.673Z,58.75
2022-11-29T08:36:11.916Z,53.55
2022-11-29T08:36:46.305Z,63.20
2022-11-29T08:37:17.901Z,58.13
2022-11-29T08:37:49.995Z,52.72
2022-11-29T08:38:22.134Z,55.17
2022-11-29T08:39:02.231Z,58.25
2022-11-29T08:39:37.464Z,53.10
2022-11-29T08:40:09.646Z,59.30
2022-11-29T08:40:41.085Z,53.65
2022-11-29T08:41:15.463Z,54.53
2022-11-29T08:41:48.984Z,43.35
2022-11-29T08:42:20.605Z,49.50
2022-11-29T08:42:52.178Z,52.75
2022-11-29T08:43:23.626Z,52.55
2022-11-29T08:43:55.209Z,55.60
2022-11-29T08:44:26.731Z,53.05
2022-11-29T08:44:58.188Z,58.00
2022-11-29T08:45:29.788Z,56.00
2022-11-29T08:46:01.857Z,59.35
2022-11-29T08:46:52.017Z,46.92